Tulpehocken, Pennsylvania
Current Conditions -  °F | °C
As of 2:54 PM on Thursday 27 Nov 2014 (Local Time) from KRDG Reporting Station
Overcast Overcast  
Wind Chill: 30°   Ceiling: 6000
Heat Index: 37°   Visibility: 10mi
Dew Point: 27°   Wind: 9mph
Humidity: 67%   Direction: 290°WNW
Pressure: 30.03"   Gusts: NA
Location:  40.4577°N, 76.2444°W
Report Text: KRDG 271954Z 29008KT 10SM FEW025 FEW033 OVC060 03/M03 A3003 RMK AO2 SLP177 T00281028
Loading
Personal Weather Stations






























Interactive Weather Map New forecast layout! Learn more

10-Day Weather Forecast

Advertisements
Track Severe Weather on mobile